< < Back
Terminal Aerodrome Forecast


Current Version              Previous Versions:   1  2  3  4  5  6  7  8  9  

Terminal Aerodrome Forecast

826
FTAK31 PAJN 020500
TAFAHN
TAF
PAHN 020520Z 0206/0306 00000KT P6SM SKC
     FM021900 14008KT P6SM SKC
     FM030400 VRB03KT P6SM SKC
      AMD LTD TO CLD VIS AND WIND=



Latest METAR

188
SAUS70 KWBC 020800
MTRAHN
METAR KAHN 020751Z AUTO 08006KT 10SM OVC007 21/18 A3008 RMK AO2 SLP178
T02060178


USA.gov is the U.S. government's official web portal to all federal, state and local government web resources and services.